createdAt,value
2018-02-05T00:01:45.481Z,0.30
2018-02-05T00:04:13.833Z,0.40
2018-02-05T00:06:41.396Z,0.40
2018-02-05T00:09:08.989Z,0.40
2018-02-05T00:11:37.320Z,0.10
2018-02-05T00:14:04.909Z,0.00
2018-02-05T00:16:32.473Z,0.10
2018-02-05T00:19:00.122Z,-0.10
2018-02-05T00:21:27.692Z,-0.20
2018-02-05T00:23:55.286Z,-0.20
2018-02-05T00:26:22.853Z,-0.10
2018-02-05T00:28:50.432Z,-0.20
2018-02-05T00:31:17.996Z,-0.20
2018-02-05T00:33:45.590Z,-0.30
2018-02-05T00:36:13.925Z,-0.20
2018-02-05T00:38:41.522Z,-0.20
2018-02-05T00:41:09.852Z,-0.40
2018-02-05T00:43:37.440Z,-0.40
2018-02-05T00:46:05.009Z,-0.40
2018-02-05T00:48:33.546Z,-0.50
2018-02-05T00:51:01.112Z,-0.50
2018-02-05T00:53:28.713Z,-0.50
2018-02-05T00:55:56.300Z,-0.60
2018-02-05T00:58:23.865Z,-0.60
2018-02-05T01:00:51.637Z,-0.60
2018-02-05T01:03:19.202Z,-0.70
2018-02-05T01:05:46.804Z,-0.70
2018-02-05T01:08:14.372Z,-0.70
2018-02-05T01:10:41.953Z,-0.30
2018-02-05T01:13:09.535Z,-0.60
2018-02-05T01:15:37.124Z,-0.70
2018-02-05T01:18:04.701Z,-0.70
2018-02-05T01:20:32.296Z,-0.60
2018-02-05T01:22:59.872Z,-0.70
2018-02-05T01:25:27.463Z,-0.70
2018-02-05T01:27:55.028Z,-0.70
2018-02-05T01:30:22.621Z,-0.70
2018-02-05T01:32:50.192Z,-0.70
2018-02-05T01:35:18.544Z,-0.70
2018-02-05T01:37:46.881Z,-0.70
2018-02-05T01:40:14.474Z,-0.80
2018-02-05T01:42:42.036Z,-0.70
2018-02-05T01:45:10.056Z,-0.70
2018-02-05T01:47:37.630Z,-0.80
2018-02-05T01:50:05.229Z,-0.90
2018-02-05T01:52:32.792Z,-0.90
2018-02-05T01:55:00.389Z,-0.90
2018-02-05T01:57:27.957Z,-0.90
2018-02-05T01:59:55.554Z,-1.00
2018-02-05T02:02:23.119Z,-1.10
2018-02-05T02:04:50.692Z,-1.10
2018-02-05T02:07:18.288Z,-1.10
2018-02-05T02:09:45.860Z,-1.10
2018-02-05T02:12:13.447Z,-1.00
2018-02-05T02:14:41.012Z,-1.10
2018-02-05T02:17:08.604Z,-1.00
2018-02-05T02:19:36.181Z,-1.00
2018-02-05T02:22:03.765Z,-1.00
2018-02-05T02:24:31.341Z,-1.00
2018-02-05T02:26:59.661Z,-1.10
2018-02-05T02:29:27.416Z,-1.20
2018-02-05T02:31:55.009Z,-1.20
2018-02-05T02:34:22.580Z,-1.20
2018-02-05T02:36:50.172Z,-1.20
2018-02-05T02:39:18.502Z,-1.20
2018-02-05T02:41:46.101Z,-1.30
2018-02-05T02:44:13.680Z,-1.30
2018-02-05T02:46:41.282Z,-1.30
2018-02-05T02:49:08.849Z,-1.20
2018-02-05T02:51:36.449Z,-1.20
2018-02-05T02:54:04.786Z,-1.20
2018-02-05T02:56:32.393Z,-1.20
2018-02-05T02:59:00.725Z,-1.20
2018-02-05T03:01:28.312Z,-1.30
2018-02-05T03:03:55.882Z,-1.20
2018-02-05T03:06:24.250Z,-1.30
2018-02-05T03:08:52.589Z,-1.10
2018-02-05T03:11:20.176Z,-1.20
2018-02-05T03:13:47.737Z,-1.20
2018-02-05T03:16:15.339Z,-1.20
2018-02-05T03:18:42.899Z,-1.10
2018-02-05T03:21:10.481Z,-1.10
2018-02-05T03:23:38.078Z,-1.10
2018-02-05T03:26:05.640Z,-0.90
2018-02-05T03:28:33.229Z,-0.90
2018-02-05T03:31:00.798Z,-0.90
2018-02-05T03:33:28.389Z,-0.90
2018-02-05T03:35:55.956Z,-0.70
2018-02-05T03:38:23.548Z,-0.80
2018-02-05T03:40:51.888Z,-0.80
2018-02-05T03:43:19.477Z,-0.90
2018-02-05T03:45:47.817Z,-0.60
2018-02-05T03:48:15.416Z,-0.70
2018-02-05T03:50:42.993Z,-0.50
2018-02-05T03:53:10.777Z,-0.50
2018-02-05T03:55:38.353Z,-0.50
2018-02-05T03:58:05.945Z,-0.50
2018-02-05T04:00:33.516Z,-0.40
2018-02-05T04:03:01.933Z,-0.10
2018-02-05T04:05:29.502Z,-0.10
2018-02-05T04:07:57.097Z,0.10
2018-02-05T04:10:24.661Z,0.20
2018-02-05T04:12:52.257Z,0.10
2018-02-05T04:15:19.820Z,0.20
2018-02-05T04:17:47.413Z,0.30
2018-02-05T04:20:15.234Z,0.50
2018-02-05T04:22:42.812Z,0.50
2018-02-05T04:25:10.368Z,0.50
2018-02-05T04:27:38.065Z,0.60
2018-02-05T04:30:05.722Z,0.60
2018-02-05T04:32:33.317Z,0.60
2018-02-05T04:35:00.889Z,0.70
2018-02-05T04:37:28.668Z,1.00
2018-02-05T04:39:56.233Z,1.00
2018-02-05T04:42:23.820Z,1.10
2018-02-05T04:44:52.168Z,1.10
2018-02-05T04:47:19.733Z,1.00
2018-02-05T04:49:47.397Z,1.00
2018-02-05T04:52:14.956Z,1.10
2018-02-05T04:54:42.906Z,1.10
2018-02-05T04:57:10.580Z,1.00
2018-02-05T04:59:38.164Z,1.10
2018-02-05T05:02:05.729Z,1.10
2018-02-05T05:04:33.403Z,1.10
2018-02-05T05:07:00.974Z,1.10
2018-02-05T05:09:31.831Z,1.20
2018-02-05T05:11:59.735Z,1.10
2018-02-05T05:14:28.730Z,1.10
2018-02-05T05:16:56.890Z,1.20
2018-02-05T05:19:25.297Z,1.20
2018-02-05T05:21:52.861Z,1.20
2018-02-05T05:24:20.468Z,1.20
2018-02-05T05:26:48.038Z,1.10
2018-02-05T05:29:15.634Z,1.20
2018-02-05T05:31:43.210Z,1.10
2018-02-05T05:34:11.574Z,1.20
2018-02-05T05:36:39.145Z,1.20
2018-02-05T05:39:06.732Z,1.30
2018-02-05T05:41:34.303Z,1.10
2018-02-05T05:44:01.884Z,1.30
2018-02-05T05:46:29.444Z,1.20
2018-02-05T05:48:58.667Z,1.30
2018-02-05T05:51:26.246Z,1.30
2018-02-05T05:53:54.601Z,1.40
2018-02-05T05:56:22.169Z,1.40
2018-02-05T05:58:49.775Z,1.30
2018-02-05T06:01:17.340Z,1.20
2018-02-05T06:03:44.900Z,1.20
2018-02-05T06:06:12.489Z,1.20
2018-02-05T06:08:40.060Z,1.10
2018-02-05T06:11:07.642Z,1.20
2018-02-05T06:13:35.204Z,1.10
2018-02-05T06:16:03.565Z,1.10
2018-02-05T06:18:31.897Z,1.30
2018-02-05T06:20:59.480Z,1.30
2018-02-05T06:23:27.036Z,1.30
2018-02-05T06:25:54.616Z,1.40
2018-02-05T06:28:22.944Z,1.10
2018-02-05T06:30:50.528Z,1.10
2018-02-05T06:33:18.141Z,1.20
2018-02-05T06:35:45.726Z,1.30
2018-02-05T06:38:13.286Z,1.30
2018-02-05T06:40:40.905Z,1.30
2018-02-05T06:43:09.253Z,1.20
2018-02-05T06:45:36.844Z,1.20
2018-02-05T06:48:04.404Z,1.20
2018-02-05T06:50:43.708Z,1.20
2018-02-05T06:53:22.972Z,1.20
2018-02-05T06:55:51.320Z,1.20
2018-02-05T06:58:18.890Z,1.20
2018-02-05T07:00:47.243Z,1.00
2018-02-05T07:03:14.804Z,1.00
2018-02-05T07:05:42.396Z,1.10
2018-02-05T07:08:10.728Z,1.20
2018-02-05T07:10:38.319Z,1.10
2018-02-05T07:13:06.648Z,1.40
2018-02-05T07:15:34.256Z,1.40
2018-02-05T07:18:02.584Z,1.30
2018-02-05T07:20:30.140Z,1.30
2018-02-05T07:22:57.737Z,1.30
2018-02-05T07:25:25.304Z,1.20
2018-02-05T07:27:52.896Z,1.20
2018-02-05T07:30:20.461Z,1.40
2018-02-05T07:32:48.088Z,1.40
2018-02-05T07:35:15.640Z,1.30
2018-02-05T07:37:43.229Z,1.30
2018-02-05T07:40:10.787Z,1.30
2018-02-05T07:42:38.377Z,1.30
2018-02-05T07:45:05.940Z,1.30
2018-02-05T07:47:33.529Z,1.40
2018-02-05T07:50:01.106Z,1.50
2018-02-05T07:52:29.465Z,1.50
2018-02-05T07:54:57.028Z,1.50
2018-02-05T07:57:24.626Z,1.60
2018-02-05T07:59:52.198Z,1.50
2018-02-05T08:02:19.784Z,1.60
2018-02-05T08:04:47.349Z,1.70
2018-02-05T08:07:14.974Z,1.70
2018-02-05T08:09:42.540Z,1.70
2018-02-05T08:12:10.124Z,1.80
2018-02-05T08:14:37.738Z,1.90
2018-02-05T08:17:06.076Z,1.80
2018-02-05T08:19:33.649Z,1.80
2018-02-05T08:22:02.069Z,1.90
2018-02-05T08:24:29.638Z,1.90
2018-02-05T08:26:57.222Z,1.90
2018-02-05T08:29:24.793Z,2.20
2018-02-05T08:31:52.406Z,2.10
2018-02-05T08:34:19.969Z,2.10
2018-02-05T08:36:47.538Z,2.30
2018-02-05T08:39:15.128Z,2.20
2018-02-05T08:41:42.698Z,2.30
2018-02-05T08:44:10.286Z,2.30
2018-02-05T08:46:37.861Z,2.40
2018-02-05T08:49:05.448Z,2.50
2018-02-05T08:51:33.008Z,2.70
2018-02-05T08:54:00.593Z,2.80
2018-02-05T08:56:28.161Z,2.90
2018-02-05T08:58:56.531Z,3.10
2018-02-05T09:01:24.867Z,3.20
2018-02-05T09:03:52.456Z,3.10
2018-02-05T09:06:20.029Z,3.30
2018-02-05T09:08:47.627Z,3.30
2018-02-05T09:11:15.196Z,3.50
2018-02-05T09:13:42.780Z,3.70
2018-02-05T09:16:10.357Z,3.90
2018-02-05T09:18:38.730Z,4.30
2018-02-05T09:21:06.307Z,4.30
2018-02-05T09:23:33.894Z,4.50
2018-02-05T09:26:01.466Z,4.80
2018-02-05T09:28:29.056Z,4.80
2018-02-05T09:30:56.620Z,5.00
2018-02-05T09:33:24.215Z,5.10
2018-02-05T09:35:51.790Z,5.00
2018-02-05T09:38:19.377Z,5.10
2018-02-05T09:40:47.219Z,5.10
2018-02-05T09:43:14.816Z,5.00
2018-02-05T09:45:42.396Z,5.00
2018-02-05T09:48:10.002Z,5.10
2018-02-05T09:50:37.584Z,5.20
2018-02-05T09:53:05.193Z,5.20
2018-02-05T09:55:32.782Z,5.10
2018-02-05T09:58:00.344Z,5.10
2018-02-05T10:00:27.935Z,4.90
2018-02-05T10:02:55.505Z,4.90
2018-02-05T10:05:23.093Z,5.10
2018-02-05T10:07:50.665Z,5.20
2018-02-05T10:10:18.261Z,5.40
2018-02-05T10:12:45.828Z,5.70
2018-02-05T10:15:13.416Z,6.00
2018-02-05T10:17:40.984Z,6.10
2018-02-05T10:20:08.574Z,6.20
2018-02-05T10:22:36.142Z,6.10
2018-02-05T10:25:03.757Z,6.20
2018-02-05T10:27:31.330Z,6.20
2018-02-05T10:29:58.922Z,6.30
2018-02-05T10:32:26.507Z,6.40
2018-02-05T10:34:54.097Z,6.40
2018-02-05T10:37:22.433Z,6.50
2018-02-05T10:39:50.018Z,6.50
2018-02-05T10:42:17.588Z,6.30
2018-02-05T10:44:45.988Z,6.50
2018-02-05T10:47:13.596Z,6.50
2018-02-05T10:49:41.176Z,6.60
2018-02-05T10:52:08.735Z,6.80
2018-02-05T10:54:37.084Z,7.10
2018-02-05T10:57:04.650Z,7.10
2018-02-05T10:59:32.240Z,7.20
2018-02-05T11:01:59.949Z,7.20
2018-02-05T11:04:27.516Z,7.20
2018-02-05T11:06:55.101Z,7.30
2018-02-05T11:09:23.428Z,7.30
2018-02-05T11:11:51.012Z,7.30
2018-02-05T11:14:18.609Z,7.30
2018-02-05T11:16:46.969Z,7.30
2018-02-05T11:19:15.307Z,7.50
2018-02-05T11:21:42.897Z,7.50
2018-02-05T11:24:10.469Z,7.60
2018-02-05T11:26:38.065Z,7.70
2018-02-05T11:29:05.638Z,7.80
2018-02-05T11:31:33.229Z,7.60
2018-02-05T11:34:00.805Z,7.70
2018-02-05T11:36:28.397Z,7.70
2018-02-05T11:38:55.965Z,7.90
2018-02-05T11:41:23.553Z,7.90
2018-02-05T11:43:51.116Z,7.80
2018-02-05T11:46:18.700Z,7.30
2018-02-05T11:48:46.277Z,7.40
2018-02-05T11:51:14.676Z,7.20
2018-02-05T11:53:42.243Z,7.10
2018-02-05T11:56:09.844Z,7.00
2018-02-05T11:58:37.418Z,7.00
2018-02-05T12:01:05.780Z,6.30
2018-02-05T12:03:34.221Z,6.30
2018-02-05T12:06:01.809Z,6.20
2018-02-05T12:08:29.380Z,6.10
2018-02-05T12:10:57.007Z,5.90
2018-02-05T12:13:24.581Z,5.90
2018-02-05T12:15:52.698Z,6.00
2018-02-05T12:18:20.333Z,5.80
2018-02-05T12:20:47.900Z,5.80
2018-02-05T12:23:16.248Z,5.60
2018-02-05T12:25:43.818Z,5.60
2018-02-05T12:28:11.404Z,5.60
2018-02-05T12:30:38.973Z,5.70
2018-02-05T12:33:08.328Z,5.50
2018-02-05T12:35:35.904Z,5.50
2018-02-05T12:38:03.501Z,5.40
2018-02-05T12:40:31.070Z,5.40
2018-02-05T12:42:58.652Z,5.30
2018-02-05T12:45:26.217Z,5.30
2018-02-05T12:47:53.812Z,5.30
2018-02-05T12:50:21.386Z,5.50
2018-02-05T12:52:49.736Z,5.50
2018-02-05T12:55:18.061Z,5.50
2018-02-05T12:57:45.645Z,5.50
2018-02-05T13:00:28.080Z,5.60
2018-02-05T13:03:15.469Z,5.50
2018-02-05T13:05:43.041Z,5.70
2018-02-05T13:08:10.677Z,5.60
2018-02-05T13:10:38.250Z,5.50
2018-02-05T13:13:05.911Z,5.50
2018-02-05T13:15:33.481Z,5.50
2018-02-05T13:18:01.068Z,5.50
2018-02-05T13:20:28.628Z,5.50
2018-02-05T13:22:56.987Z,5.70
2018-02-05T13:25:24.545Z,5.60
2018-02-05T13:27:52.125Z,5.60
2018-02-05T13:30:20.461Z,5.50
2018-02-05T13:32:48.052Z,5.50
2018-02-05T13:35:15.620Z,5.50
2018-02-05T13:37:43.204Z,5.50
2018-02-05T13:40:10.777Z,5.40
2018-02-05T13:42:38.360Z,5.30
2018-02-05T13:45:05.925Z,5.40
2018-02-05T13:47:33.508Z,5.30
2018-02-05T13:50:01.073Z,5.30
2018-02-05T13:52:28.636Z,5.30
2018-02-05T13:54:56.998Z,5.40
2018-02-05T13:57:24.573Z,5.40
2018-02-05T13:59:52.919Z,5.20
2018-02-05T14:02:20.486Z,5.20
2018-02-05T14:04:48.112Z,5.30
2018-02-05T14:07:15.704Z,5.30
2018-02-05T14:09:43.302Z,5.30
2018-02-05T14:12:10.883Z,5.30
2018-02-05T14:14:38.481Z,5.30
2018-02-05T14:17:06.052Z,5.20
2018-02-05T14:19:33.652Z,5.20
2018-02-05T14:22:01.212Z,5.30
2018-02-05T14:24:28.809Z,5.20
2018-02-05T14:26:56.379Z,5.20
2018-02-05T14:29:23.969Z,5.10
2018-02-05T14:31:52.306Z,5.10
2018-02-05T14:34:19.904Z,5.10
2018-02-05T14:36:48.245Z,5.10
2018-02-05T14:39:15.839Z,5.10
2018-02-05T14:41:44.164Z,4.90
2018-02-05T14:44:11.763Z,4.90
2018-02-05T14:46:40.089Z,4.80
2018-02-05T14:49:07.686Z,4.80
2018-02-05T14:51:35.262Z,5.00
2018-02-05T14:54:03.616Z,4.80
2018-02-05T14:56:31.193Z,4.80
2018-02-05T14:58:59.553Z,4.90
2018-02-05T15:01:27.124Z,4.90
2018-02-05T15:03:54.723Z,4.90
2018-02-05T15:06:22.294Z,4.80
2018-02-05T15:08:49.868Z,4.70
2018-02-05T15:11:17.461Z,4.60
2018-02-05T15:13:45.048Z,4.70
2018-02-05T15:16:12.644Z,4.60
2018-02-05T15:18:40.222Z,4.60
2018-02-05T15:21:07.817Z,4.50
2018-02-05T15:23:36.152Z,4.60
2018-02-05T15:26:03.740Z,4.50
2018-02-05T15:28:32.077Z,4.50
2018-02-05T15:31:00.133Z,4.50
2018-02-05T15:33:27.726Z,4.50
2018-02-05T15:35:55.321Z,4.50
2018-02-05T15:38:23.657Z,4.40
2018-02-05T15:40:51.253Z,4.40
2018-02-05T15:43:19.588Z,4.40
2018-02-05T15:45:47.178Z,4.40
2018-02-05T15:48:15.521Z,4.30
2018-02-05T15:50:44.045Z,4.30
2018-02-05T15:53:12.372Z,4.10
2018-02-05T15:55:40.024Z,4.10
2018-02-05T15:58:07.591Z,4.20
2018-02-05T16:00:35.185Z,4.10
2018-02-05T16:03:02.766Z,4.10
2018-02-05T16:05:30.361Z,4.00
2018-02-05T16:07:57.929Z,4.00
2018-02-05T16:10:26.067Z,3.90
2018-02-05T16:12:53.689Z,3.90
2018-02-05T16:15:21.292Z,3.90
2018-02-05T16:17:48.906Z,4.00
2018-02-05T16:20:17.209Z,3.90
2018-02-05T16:22:45.561Z,3.80
2018-02-05T16:25:13.157Z,3.80
2018-02-05T16:27:40.753Z,3.80
2018-02-05T16:30:08.330Z,3.70
2018-02-05T16:32:35.922Z,3.60
2018-02-05T16:35:03.489Z,3.60
2018-02-05T16:37:31.850Z,3.50
2018-02-05T16:40:00.177Z,3.60
2018-02-05T16:42:27.777Z,3.60
2018-02-05T16:44:55.374Z,3.70
2018-02-05T16:47:23.847Z,3.60
2018-02-05T16:49:52.988Z,3.70
2018-02-05T16:52:20.610Z,3.70
2018-02-05T16:54:48.172Z,3.70
2018-02-05T16:57:15.756Z,3.60
2018-02-05T16:59:43.330Z,3.50
2018-02-05T17:02:10.930Z,3.50
2018-02-05T17:04:39.269Z,3.40
2018-02-05T17:07:06.897Z,3.40
2018-02-05T17:09:34.466Z,3.50
2018-02-05T17:12:02.130Z,3.50
2018-02-05T17:14:29.705Z,3.60
2018-02-05T17:16:57.288Z,3.50
2018-02-05T17:19:25.626Z,3.30
2018-02-05T17:21:53.216Z,3.30
2018-02-05T17:24:20.772Z,3.30
2018-02-05T17:26:48.365Z,3.50
2018-02-05T17:29:15.940Z,3.50
2018-02-05T17:31:43.540Z,3.50
2018-02-05T17:34:11.103Z,3.50
2018-02-05T17:36:38.709Z,3.40
2018-02-05T17:39:06.286Z,3.20
2018-02-05T17:41:33.876Z,3.20
2018-02-05T17:44:01.487Z,3.10
2018-02-05T17:46:29.044Z,3.20
2018-02-05T17:48:56.637Z,3.10
2018-02-05T17:51:24.210Z,3.10
2018-02-05T17:53:51.806Z,3.10
2018-02-05T17:56:19.381Z,3.10
2018-02-05T17:58:46.976Z,3.00
2018-02-05T18:01:14.536Z,3.00
2018-02-05T18:03:42.124Z,3.00
2018-02-05T18:06:09.684Z,3.00
2018-02-05T18:08:37.318Z,2.90
2018-02-05T18:11:04.884Z,2.80
2018-02-05T18:13:32.464Z,2.80
2018-02-05T18:16:00.038Z,2.70
2018-02-05T18:18:27.626Z,2.70
2018-02-05T18:20:55.184Z,2.80
2018-02-05T18:23:22.951Z,2.70
2018-02-05T18:25:50.518Z,2.60
2018-02-05T18:28:18.100Z,2.60
2018-02-05T18:30:46.106Z,2.70
2018-02-05T18:33:13.706Z,2.60
2018-02-05T18:35:41.273Z,2.60
2018-02-05T18:38:08.858Z,2.60
2018-02-05T18:40:36.429Z,2.70
2018-02-05T18:43:04.794Z,2.50
2018-02-05T18:45:32.374Z,2.50
2018-02-05T18:47:59.969Z,2.50
2018-02-05T18:50:27.562Z,2.60
2018-02-05T18:52:55.149Z,2.60
2018-02-05T18:55:23.510Z,2.50
2018-02-05T18:57:51.076Z,2.50
2018-02-05T19:00:30.477Z,2.60
2018-02-05T19:02:58.050Z,2.60
2018-02-05T19:05:25.636Z,2.50
2018-02-05T19:07:53.973Z,2.40
2018-02-05T19:10:21.587Z,2.40
2018-02-05T19:12:49.893Z,2.40
2018-02-05T19:15:17.505Z,2.30
2018-02-05T19:17:45.082Z,2.40
2018-02-05T19:20:13.446Z,2.50
2018-02-05T19:22:41.780Z,2.50
2018-02-05T19:25:09.377Z,2.50
2018-02-05T19:27:36.961Z,2.40
2018-02-05T19:30:04.760Z,2.40
2018-02-05T19:32:32.324Z,2.40
2018-02-05T19:34:59.954Z,2.50
2018-02-05T19:37:27.527Z,2.50
2018-02-05T19:39:55.108Z,2.40
2018-02-05T19:42:22.710Z,2.60
2018-02-05T19:44:51.077Z,2.50
2018-02-05T19:47:19.418Z,2.40
2018-02-05T19:49:47.008Z,2.40
2018-02-05T19:52:14.577Z,2.40
2018-02-05T19:54:42.160Z,2.50
2018-02-05T19:57:09.730Z,2.60
2018-02-05T19:59:37.322Z,2.60
2018-02-05T20:02:04.884Z,2.60
2018-02-05T20:04:32.473Z,2.60
2018-02-05T20:07:00.091Z,2.50
2018-02-05T20:09:27.652Z,2.50
2018-02-05T20:11:55.214Z,2.60
2018-02-05T20:14:22.819Z,2.50
2018-02-05T20:16:50.412Z,2.40
2018-02-05T20:19:18.019Z,2.40
2018-02-05T20:21:45.619Z,2.30
2018-02-05T20:24:13.189Z,2.40
2018-02-05T20:26:40.781Z,2.40
2018-02-05T20:29:08.361Z,2.50
2018-02-05T20:31:36.716Z,2.60
2018-02-05T20:34:04.354Z,2.60
2018-02-05T20:36:31.940Z,2.60
2018-02-05T20:38:59.517Z,2.60
2018-02-05T20:41:27.110Z,2.70
2018-02-05T20:43:54.732Z,2.80
2018-02-05T20:46:22.323Z,2.70
2018-02-05T20:48:49.897Z,2.70
2018-02-05T20:51:17.494Z,2.80
2018-02-05T20:53:45.077Z,2.90
2018-02-05T20:56:13.471Z,3.00
2018-02-05T20:58:41.033Z,3.00
2018-02-05T21:01:08.686Z,3.00
2018-02-05T21:03:37.077Z,2.90
2018-02-05T21:06:04.706Z,2.90
2018-02-05T21:08:32.278Z,3.00
2018-02-05T21:11:00.628Z,2.90
2018-02-05T21:13:28.205Z,2.90
2018-02-05T21:15:55.795Z,3.00
2018-02-05T21:18:23.401Z,3.00
2018-02-05T21:20:50.998Z,3.10
2018-02-05T21:23:19.366Z,3.10
2018-02-05T21:25:46.956Z,3.10
2018-02-05T21:28:14.522Z,3.20
2018-02-05T21:30:42.080Z,3.10
2018-02-05T21:33:09.670Z,3.20
2018-02-05T21:35:37.235Z,3.20
2018-02-05T21:38:04.823Z,3.10
2018-02-05T21:40:33.157Z,3.10
2018-02-05T21:43:00.754Z,3.10
2018-02-05T21:45:28.330Z,3.10
2018-02-05T21:47:55.923Z,3.10
2018-02-05T21:50:23.493Z,3.20
2018-02-05T21:52:51.098Z,3.10
2018-02-05T21:55:19.429Z,3.10
2018-02-05T21:57:47.057Z,3.00
2018-02-05T22:00:14.622Z,3.20
2018-02-05T22:02:42.255Z,3.00
2018-02-05T22:05:10.607Z,3.10
2018-02-05T22:07:38.197Z,3.10
2018-02-05T22:10:05.770Z,3.10
2018-02-05T22:12:33.369Z,3.00
2018-02-05T22:15:00.937Z,3.00
2018-02-05T22:17:28.535Z,2.90
2018-02-05T22:19:56.115Z,2.90
2018-02-05T22:22:23.705Z,2.80
2018-02-05T22:24:51.271Z,2.80
2018-02-05T22:27:18.867Z,2.70
2018-02-05T22:29:47.253Z,2.70
2018-02-05T22:32:14.838Z,2.70
2018-02-05T22:34:42.440Z,2.80
2018-02-05T22:37:10.888Z,2.80
2018-02-05T22:39:38.453Z,2.60
2018-02-05T22:42:06.012Z,2.60
2018-02-05T22:44:33.608Z,2.50
2018-02-05T22:47:01.178Z,2.60
2018-02-05T22:49:28.769Z,2.50
2018-02-05T22:51:56.336Z,2.50
2018-02-05T22:54:23.929Z,2.50
2018-02-05T22:56:51.496Z,2.60
2018-02-05T22:59:19.844Z,2.80
2018-02-05T23:01:47.418Z,2.80
2018-02-05T23:04:15.015Z,2.70
2018-02-05T23:06:42.589Z,2.70
2018-02-05T23:09:10.184Z,2.90
2018-02-05T23:11:37.762Z,2.70
2018-02-05T23:14:05.406Z,2.50
2018-02-05T23:16:32.942Z,2.50
2018-02-05T23:19:00.539Z,2.50
2018-02-05T23:21:28.121Z,2.60
2018-02-05T23:23:56.490Z,2.60
2018-02-05T23:26:24.821Z,2.50
2018-02-05T23:28:52.404Z,2.50
2018-02-05T23:31:19.973Z,2.50
2018-02-05T23:33:47.556Z,2.50
2018-02-05T23:36:15.133Z,2.50
2018-02-05T23:38:42.727Z,2.50
2018-02-05T23:41:10.308Z,2.40
2018-02-05T23:43:37.898Z,2.40
2018-02-05T23:46:05.481Z,2.40
2018-02-05T23:48:33.081Z,2.40
2018-02-05T23:51:00.687Z,2.40
2018-02-05T23:53:28.265Z,2.30
2018-02-05T23:55:55.836Z,2.30
2018-02-05T23:58:23.437Z,2.40
